sensor_id;sensor_type;location;lat;lon;timestamp;temperature;humidity
52879;DHT22;38747;53.140;6.498;2023-02-13T00:01:30;6.50;99.90
52879;DHT22;38747;53.140;6.498;2023-02-13T00:03:56;6.50;99.90
52879;DHT22;38747;53.140;6.498;2023-02-13T00:06:22;6.40;99.90
52879;DHT22;38747;53.140;6.498;2023-02-13T00:08:47;6.50;99.90
52879;DHT22;38747;53.140;6.498;2023-02-13T00:11:13;6.40;99.90
52879;DHT22;38747;53.140;6.498;2023-02-13T00:13:39;6.50;99.90
52879;DHT22;38747;53.140;6.498;2023-02-13T00:16:05;6.40;99.90
52879;DHT22;38747;53.140;6.498;2023-02-13T00:18:34;6.40;99.90
52879;DHT22;38747;53.140;6.498;2023-02-13T00:21:03;6.40;99.90
52879;DHT22;38747;53.140;6.498;2023-02-13T00:23:30;6.40;99.90
52879;DHT22;38747;53.140;6.498;2023-02-13T00:25:57;6.40;99.90
52879;DHT22;38747;53.140;6.498;2023-02-13T00:28:23;6.40;99.90
52879;DHT22;38747;53.140;6.498;2023-02-13T00:30:48;6.40;99.90
52879;DHT22;38747;53.140;6.498;2023-02-13T00:33:14;6.40;99.90
52879;DHT22;38747;53.140;6.498;2023-02-13T00:35:39;6.40;99.90
52879;DHT22;38747;53.140;6.498;2023-02-13T00:38:05;6.40;99.90
52879;DHT22;38747;53.140;6.498;2023-02-13T00:40:31;6.40;99.90
52879;DHT22;38747;53.140;6.498;2023-02-13T00:42:56;6.40;99.90
52879;DHT22;38747;53.140;6.498;2023-02-13T00:45:22;6.40;99.90
52879;DHT22;38747;53.140;6.498;2023-02-13T00:47:48;6.40;99.90
52879;DHT22;38747;53.140;6.498;2023-02-13T00:50:13;6.30;99.90
52879;DHT22;38747;53.140;6.498;2023-02-13T00:52:39;6.40;99.90
52879;DHT22;38747;53.140;6.498;2023-02-13T00:55:05;6.40;99.90
52879;DHT22;38747;53.140;6.498;2023-02-13T00:57:30;6.40;99.90
52879;DHT22;38747;53.140;6.498;2023-02-13T00:59:57;6.40;99.90
52879;DHT22;38747;53.140;6.498;2023-02-13T01:02:22;6.40;99.90
52879;DHT22;38747;53.140;6.498;2023-02-13T01:04:48;6.40;99.90
52879;DHT22;38747;53.140;6.498;2023-02-13T01:07:14;6.40;99.90
52879;DHT22;38747;53.140;6.498;2023-02-13T01:09:39;6.40;99.90
52879;DHT22;38747;53.140;6.498;2023-02-13T01:12:05;6.30;99.90
52879;DHT22;38747;53.140;6.498;2023-02-13T01:14:31;6.30;99.90
52879;DHT22;38747;53.140;6.498;2023-02-13T01:16:56;6.40;99.90
52879;DHT22;38747;53.140;6.498;2023-02-13T01:19:22;6.30;99.90
52879;DHT22;38747;53.140;6.498;2023-02-13T01:21:48;6.40;99.90
52879;DHT22;38747;53.140;6.498;2023-02-13T01:24:13;6.40;99.90
52879;DHT22;38747;53.140;6.498;2023-02-13T01:26:39;6.30;99.90
52879;DHT22;38747;53.140;6.498;2023-02-13T01:29:05;6.30;99.90
52879;DHT22;38747;53.140;6.498;2023-02-13T01:31:30;6.30;99.90
52879;DHT22;38747;53.140;6.498;2023-02-13T01:33:57;6.30;99.90
52879;DHT22;38747;53.140;6.498;2023-02-13T01:36:23;6.30;99.90
52879;DHT22;38747;53.140;6.498;2023-02-13T01:38:52;6.30;99.90
52879;DHT22;38747;53.140;6.498;2023-02-13T01:41:18;6.30;99.90
52879;DHT22;38747;53.140;6.498;2023-02-13T01:43:53;6.30;99.90
52879;DHT22;38747;53.140;6.498;2023-02-13T01:46:40;6.30;99.90
52879;DHT22;38747;53.140;6.498;2023-02-13T01:49:17;6.30;99.90
52879;DHT22;38747;53.140;6.498;2023-02-13T01:51:44;6.30;99.90
52879;DHT22;38747;53.140;6.498;2023-02-13T01:54:18;6.20;99.90
52879;DHT22;38747;53.140;6.498;2023-02-13T01:56:54;6.30;99.90
52879;DHT22;38747;53.140;6.498;2023-02-13T01:59:32;6.20;99.90
52879;DHT22;38747;53.140;6.498;2023-02-13T02:01:59;6.20;99.90
52879;DHT22;38747;53.140;6.498;2023-02-13T02:04:29;6.30;99.90
52879;DHT22;38747;53.140;6.498;2023-02-13T02:06:59;6.30;99.90
52879;DHT22;38747;53.140;6.498;2023-02-13T02:09:28;6.30;99.90
52879;DHT22;38747;53.140;6.498;2023-02-13T02:12:35;6.30;99.90
52879;DHT22;38747;53.140;6.498;2023-02-13T02:15:04;6.30;99.90
52879;DHT22;38747;53.140;6.498;2023-02-13T02:17:32;6.30;99.90
52879;DHT22;38747;53.140;6.498;2023-02-13T02:28:26;6.30;99.90
52879;DHT22;38747;53.140;6.498;2023-02-13T02:32:16;6.30;99.90
52879;DHT22;38747;53.140;6.498;2023-02-13T02:37:20;6.30;99.90
52879;DHT22;38747;53.140;6.498;2023-02-13T02:45:24;6.30;99.90
52879;DHT22;38747;53.140;6.498;2023-02-13T02:48:12;6.30;99.90
52879;DHT22;38747;53.140;6.498;2023-02-13T02:54:07;6.30;99.90
52879;DHT22;38747;53.140;6.498;2023-02-13T02:57:01;6.40;99.90
52879;DHT22;38747;53.140;6.498;2023-02-13T02:59:28;6.40;99.90
52879;DHT22;38747;53.140;6.498;2023-02-13T03:02:15;6.40;99.90
52879;DHT22;38747;53.140;6.498;2023-02-13T03:05:00;6.30;99.90
52879;DHT22;38747;53.140;6.498;2023-02-13T03:07:45;6.30;99.90
52879;DHT22;38747;53.140;6.498;2023-02-13T03:10:15;6.30;99.90
52879;DHT22;38747;53.140;6.498;2023-02-13T03:13:08;6.30;99.90
52879;DHT22;38747;53.140;6.498;2023-02-13T03:15:50;6.30;99.90
52879;DHT22;38747;53.140;6.498;2023-02-13T03:18:38;6.30;99.90
52879;DHT22;38747;53.140;6.498;2023-02-13T03:27:18;6.30;99.90
52879;DHT22;38747;53.140;6.498;2023-02-13T03:35:39;6.30;99.90
52879;DHT22;38747;53.140;6.498;2023-02-13T03:38:52;6.20;99.90
52879;DHT22;38747;53.140;6.498;2023-02-13T03:46:26;6.20;99.90
52879;DHT22;38747;53.140;6.498;2023-02-13T03:48:54;6.20;99.90
52879;DHT22;38747;53.140;6.498;2023-02-13T03:51:52;6.20;99.90
52879;DHT22;38747;53.140;6.498;2023-02-13T03:54:46;6.20;99.90
52879;DHT22;38747;53.140;6.498;2023-02-13T03:57:34;6.10;99.90
52879;DHT22;38747;53.140;6.498;2023-02-13T04:00:20;6.10;99.90
52879;DHT22;38747;53.140;6.498;2023-02-13T04:03:00;6.10;99.90
52879;DHT22;38747;53.140;6.498;2023-02-13T04:05:35;6.10;99.90
52879;DHT22;38747;53.140;6.498;2023-02-13T04:08:04;6.10;99.90
52879;DHT22;38747;53.140;6.498;2023-02-13T04:10:31;6.10;99.90
52879;DHT22;38747;53.140;6.498;2023-02-13T04:18:37;6.00;99.90
52879;DHT22;38747;53.140;6.498;2023-02-13T04:21:04;6.00;99.90
52879;DHT22;38747;53.140;6.498;2023-02-13T04:23:30;6.00;99.90
52879;DHT22;38747;53.140;6.498;2023-02-13T04:25:56;6.00;99.90
52879;DHT22;38747;53.140;6.498;2023-02-13T04:28:24;6.00;99.90
52879;DHT22;38747;53.140;6.498;2023-02-13T04:30:50;6.00;99.90
52879;DHT22;38747;53.140;6.498;2023-02-13T04:33:16;6.00;99.90
52879;DHT22;38747;53.140;6.498;2023-02-13T04:35:41;6.00;99.90
52879;DHT22;38747;53.140;6.498;2023-02-13T04:38:07;6.00;99.90
52879;DHT22;38747;53.140;6.498;2023-02-13T04:40:33;5.90;99.90
52879;DHT22;38747;53.140;6.498;2023-02-13T04:42:59;6.00;99.90
52879;DHT22;38747;53.140;6.498;2023-02-13T04:45:25;5.90;99.90
52879;DHT22;38747;53.140;6.498;2023-02-13T04:47:55;6.00;99.90
52879;DHT22;38747;53.140;6.498;2023-02-13T04:50:21;6.00;99.90
52879;DHT22;38747;53.140;6.498;2023-02-13T04:52:47;6.00;99.90
52879;DHT22;38747;53.140;6.498;2023-02-13T04:55:14;6.00;99.90
52879;DHT22;38747;53.140;6.498;2023-02-13T04:57:40;6.00;99.90
52879;DHT22;38747;53.140;6.498;2023-02-13T05:00:06;6.00;99.90
52879;DHT22;38747;53.140;6.498;2023-02-13T05:02:32;6.00;99.90
52879;DHT22;38747;53.140;6.498;2023-02-13T05:04:57;6.00;99.90
52879;DHT22;38747;53.140;6.498;2023-02-13T05:07:23;6.00;99.90
52879;DHT22;38747;53.140;6.498;2023-02-13T05:09:49;6.00;99.90
52879;DHT22;38747;53.140;6.498;2023-02-13T05:12:14;5.90;99.90
52879;DHT22;38747;53.140;6.498;2023-02-13T05:14:40;6.00;99.90
52879;DHT22;38747;53.140;6.498;2023-02-13T05:17:06;5.90;99.90
52879;DHT22;38747;53.140;6.498;2023-02-13T05:19:31;5.90;99.90
52879;DHT22;38747;53.140;6.498;2023-02-13T05:21:57;5.90;99.90
52879;DHT22;38747;53.140;6.498;2023-02-13T05:24:41;5.90;99.90
52879;DHT22;38747;53.140;6.498;2023-02-13T05:27:07;5.90;99.90
52879;DHT22;38747;53.140;6.498;2023-02-13T05:29:32;5.90;99.90
52879;DHT22;38747;53.140;6.498;2023-02-13T05:31:58;5.90;99.90
52879;DHT22;38747;53.140;6.498;2023-02-13T05:34:25;5.90;99.90
52879;DHT22;38747;53.140;6.498;2023-02-13T05:36:52;5.90;99.90
52879;DHT22;38747;53.140;6.498;2023-02-13T05:39:18;5.90;99.90
52879;DHT22;38747;53.140;6.498;2023-02-13T05:41:45;5.90;99.90
52879;DHT22;38747;53.140;6.498;2023-02-13T05:44:12;5.90;99.90
52879;DHT22;38747;53.140;6.498;2023-02-13T05:46:39;5.90;99.90
52879;DHT22;38747;53.140;6.498;2023-02-13T05:49:06;5.90;99.90
52879;DHT22;38747;53.140;6.498;2023-02-13T05:51:32;5.90;99.90
52879;DHT22;38747;53.140;6.498;2023-02-13T05:53:58;5.90;99.90
52879;DHT22;38747;53.140;6.498;2023-02-13T05:56:24;5.90;99.90
52879;DHT22;38747;53.140;6.498;2023-02-13T05:58:53;5.90;99.90
52879;DHT22;38747;53.140;6.498;2023-02-13T06:01:20;5.90;99.90
52879;DHT22;38747;53.140;6.498;2023-02-13T06:03:46;5.90;99.90
52879;DHT22;38747;53.140;6.498;2023-02-13T06:06:12;6.00;99.90
52879;DHT22;38747;53.140;6.498;2023-02-13T06:08:37;5.90;99.90
52879;DHT22;38747;53.140;6.498;2023-02-13T06:11:03;5.90;99.90
52879;DHT22;38747;53.140;6.498;2023-02-13T06:13:29;5.90;99.90
52879;DHT22;38747;53.140;6.498;2023-02-13T06:15:55;5.90;99.90
52879;DHT22;38747;53.140;6.498;2023-02-13T06:18:20;5.90;99.90
52879;DHT22;38747;53.140;6.498;2023-02-13T06:20:46;5.90;99.90
52879;DHT22;38747;53.140;6.498;2023-02-13T06:23:12;5.90;99.90
52879;DHT22;38747;53.140;6.498;2023-02-13T06:25:38;5.90;99.90
52879;DHT22;38747;53.140;6.498;2023-02-13T06:28:04;5.90;99.90
52879;DHT22;38747;53.140;6.498;2023-02-13T06:30:30;5.90;99.90
52879;DHT22;38747;53.140;6.498;2023-02-13T06:32:56;5.90;99.90
52879;DHT22;38747;53.140;6.498;2023-02-13T06:35:21;5.90;99.90
52879;DHT22;38747;53.140;6.498;2023-02-13T06:37:47;5.90;99.90
52879;DHT22;38747;53.140;6.498;2023-02-13T06:40:14;5.90;99.90
52879;DHT22;38747;53.140;6.498;2023-02-13T06:42:41;5.90;99.90
52879;DHT22;38747;53.140;6.498;2023-02-13T06:45:08;5.80;99.90
52879;DHT22;38747;53.140;6.498;2023-02-13T06:47:34;5.80;99.90
52879;DHT22;38747;53.140;6.498;2023-02-13T06:50:00;5.80;99.90
52879;DHT22;38747;53.140;6.498;2023-02-13T06:52:26;5.80;99.90
52879;DHT22;38747;53.140;6.498;2023-02-13T06:54:52;5.80;99.90
52879;DHT22;38747;53.140;6.498;2023-02-13T06:57:17;5.80;99.90
52879;DHT22;38747;53.140;6.498;2023-02-13T06:59:43;5.80;99.90
52879;DHT22;38747;53.140;6.498;2023-02-13T07:02:10;5.80;99.90
52879;DHT22;38747;53.140;6.498;2023-02-13T07:04:36;5.80;99.90
52879;DHT22;38747;53.140;6.498;2023-02-13T07:07:01;5.80;99.90
52879;DHT22;38747;53.140;6.498;2023-02-13T07:09:27;5.80;99.90
52879;DHT22;38747;53.140;6.498;2023-02-13T07:11:53;5.80;99.90
52879;DHT22;38747;53.140;6.498;2023-02-13T07:14:18;5.80;99.90
52879;DHT22;38747;53.140;6.498;2023-02-13T07:16:44;5.80;99.90
52879;DHT22;38747;53.140;6.498;2023-02-13T07:19:09;5.80;99.90
52879;DHT22;38747;53.140;6.498;2023-02-13T07:21:35;5.80;99.90
52879;DHT22;38747;53.140;6.498;2023-02-13T07:24:03;5.80;99.90
52879;DHT22;38747;53.140;6.498;2023-02-13T07:26:28;5.80;99.90
52879;DHT22;38747;53.140;6.498;2023-02-13T07:28:54;5.80;99.90
52879;DHT22;38747;53.140;6.498;2023-02-13T07:31:19;5.80;99.90
52879;DHT22;38747;53.140;6.498;2023-02-13T07:33:47;5.80;99.90
52879;DHT22;38747;53.140;6.498;2023-02-13T07:36:13;5.80;99.90
52879;DHT22;38747;53.140;6.498;2023-02-13T07:38:39;5.80;99.90
52879;DHT22;38747;53.140;6.498;2023-02-13T07:41:04;5.80;99.90
52879;DHT22;38747;53.140;6.498;2023-02-13T07:43:30;5.80;99.90
52879;DHT22;38747;53.140;6.498;2023-02-13T07:46:00;5.80;99.90
52879;DHT22;38747;53.140;6.498;2023-02-13T07:48:27;5.90;99.90
52879;DHT22;38747;53.140;6.498;2023-02-13T07:50:54;5.90;99.90
52879;DHT22;38747;53.140;6.498;2023-02-13T07:53:20;5.90;99.90
52879;DHT22;38747;53.140;6.498;2023-02-13T07:55:47;5.90;99.90
52879;DHT22;38747;53.140;6.498;2023-02-13T07:58:12;5.90;99.90
52879;DHT22;38747;53.140;6.498;2023-02-13T08:00:38;5.90;99.90
52879;DHT22;38747;53.140;6.498;2023-02-13T08:03:03;5.90;99.90
52879;DHT22;38747;53.140;6.498;2023-02-13T08:05:31;5.90;99.90
52879;DHT22;38747;53.140;6.498;2023-02-13T08:07:57;5.90;99.90
52879;DHT22;38747;53.140;6.498;2023-02-13T08:10:23;6.00;99.90
52879;DHT22;38747;53.140;6.498;2023-02-13T08:13:07;6.00;99.90
52879;DHT22;38747;53.140;6.498;2023-02-13T08:15:34;6.00;99.90
52879;DHT22;38747;53.140;6.498;2023-02-13T08:17:59;6.00;99.90
52879;DHT22;38747;53.140;6.498;2023-02-13T08:20:25;6.00;99.90
52879;DHT22;38747;53.140;6.498;2023-02-13T08:22:51;6.00;99.90
52879;DHT22;38747;53.140;6.498;2023-02-13T08:25:16;6.10;99.90
52879;DHT22;38747;53.140;6.498;2023-02-13T08:27:44;6.00;99.90
52879;DHT22;38747;53.140;6.498;2023-02-13T08:30:10;6.10;99.90
52879;DHT22;38747;53.140;6.498;2023-02-13T08:32:36;6.10;99.90
52879;DHT22;38747;53.140;6.498;2023-02-13T08:35:02;6.10;99.90
52879;DHT22;38747;53.140;6.498;2023-02-13T08:37:27;6.10;99.90
52879;DHT22;38747;53.140;6.498;2023-02-13T08:39:53;6.10;99.90
52879;DHT22;38747;53.140;6.498;2023-02-13T08:42:19;6.20;99.90
52879;DHT22;38747;53.140;6.498;2023-02-13T08:44:44;6.20;99.90
52879;DHT22;38747;53.140;6.498;2023-02-13T08:47:10;6.20;99.90
52879;DHT22;38747;53.140;6.498;2023-02-13T08:49:36;6.20;99.90
52879;DHT22;38747;53.140;6.498;2023-02-13T08:52:02;6.20;99.90
52879;DHT22;38747;53.140;6.498;2023-02-13T08:54:29;6.20;99.90
52879;DHT22;38747;53.140;6.498;2023-02-13T08:56:54;6.30;99.90
52879;DHT22;38747;53.140;6.498;2023-02-13T08:59:20;6.30;99.90
52879;DHT22;38747;53.140;6.498;2023-02-13T09:01:46;6.30;99.90
52879;DHT22;38747;53.140;6.498;2023-02-13T09:04:12;6.30;99.90
52879;DHT22;38747;53.140;6.498;2023-02-13T09:06:40;6.30;99.90
52879;DHT22;38747;53.140;6.498;2023-02-13T09:09:06;6.40;99.90
52879;DHT22;38747;53.140;6.498;2023-02-13T09:11:32;6.40;99.90
52879;DHT22;38747;53.140;6.498;2023-02-13T09:13:58;6.40;99.90
52879;DHT22;38747;53.140;6.498;2023-02-13T09:16:23;6.40;99.90
52879;DHT22;38747;53.140;6.498;2023-02-13T09:18:50;6.40;99.90
52879;DHT22;38747;53.140;6.498;2023-02-13T09:21:17;6.40;99.90
52879;DHT22;38747;53.140;6.498;2023-02-13T09:23:43;6.50;99.90
52879;DHT22;38747;53.140;6.498;2023-02-13T09:26:13;6.50;99.90
52879;DHT22;38747;53.140;6.498;2023-02-13T09:28:40;6.50;99.90
52879;DHT22;38747;53.140;6.498;2023-02-13T09:31:11;6.50;99.90
52879;DHT22;38747;53.140;6.498;2023-02-13T09:33:39;6.60;99.90
52879;DHT22;38747;53.140;6.498;2023-02-13T09:36:06;6.60;99.90
52879;DHT22;38747;53.140;6.498;2023-02-13T09:38:32;6.60;99.90
52879;DHT22;38747;53.140;6.498;2023-02-13T09:41:25;6.60;99.90
52879;DHT22;38747;53.140;6.498;2023-02-13T09:44:02;6.70;99.90
52879;DHT22;38747;53.140;6.498;2023-02-13T09:46:32;6.70;99.90
52879;DHT22;38747;53.140;6.498;2023-02-13T09:49:11;6.70;99.90
52879;DHT22;38747;53.140;6.498;2023-02-13T09:51:43;6.70;99.90
52879;DHT22;38747;53.140;6.498;2023-02-13T09:54:13;6.80;99.90
52879;DHT22;38747;53.140;6.498;2023-02-13T09:59:38;6.80;99.90
52879;DHT22;38747;53.140;6.498;2023-02-13T10:05:09;6.90;99.90
52879;DHT22;38747;53.140;6.498;2023-02-13T10:10:51;7.00;99.90
52879;DHT22;38747;53.140;6.498;2023-02-13T10:16:44;7.00;99.90
52879;DHT22;38747;53.140;6.498;2023-02-13T10:19:18;7.00;99.90
52879;DHT22;38747;53.140;6.498;2023-02-13T10:21:52;7.00;99.90
52879;DHT22;38747;53.140;6.498;2023-02-13T10:24:47;7.00;99.90
52879;DHT22;38747;53.140;6.498;2023-02-13T10:27:25;7.00;99.90
52879;DHT22;38747;53.140;6.498;2023-02-13T10:29:58;7.10;99.90
52879;DHT22;38747;53.140;6.498;2023-02-13T10:32:53;7.10;99.90
52879;DHT22;38747;53.140;6.498;2023-02-13T10:35:36;7.10;99.90
52879;DHT22;38747;53.140;6.498;2023-02-13T10:38:14;7.20;99.90
52879;DHT22;38747;53.140;6.498;2023-02-13T10:41:35;7.20;99.90
52879;DHT22;38747;53.140;6.498;2023-02-13T10:44:01;7.20;99.90
52879;DHT22;38747;53.140;6.498;2023-02-13T10:46:56;7.20;99.90
52879;DHT22;38747;53.140;6.498;2023-02-13T10:49:34;7.30;99.90
52879;DHT22;38747;53.140;6.498;2023-02-13T10:58:20;7.30;99.90
52879;DHT22;38747;53.140;6.498;2023-02-13T11:01:32;7.40;99.90
52879;DHT22;38747;53.140;6.498;2023-02-13T11:03:32;7.40;99.90
52879;DHT22;38747;53.140;6.498;2023-02-13T11:05:58;7.40;99.90
52879;DHT22;38747;53.140;6.498;2023-02-13T11:08:34;7.40;99.90
52879;DHT22;38747;53.140;6.498;2023-02-13T11:11:00;7.40;99.90
52879;DHT22;38747;53.140;6.498;2023-02-13T11:13:27;7.40;99.90
52879;DHT22;38747;53.140;6.498;2023-02-13T11:16:08;7.50;99.90
52879;DHT22;38747;53.140;6.498;2023-02-13T11:18:40;7.50;99.90
52879;DHT22;38747;53.140;6.498;2023-02-13T11:21:09;7.50;99.90
52879;DHT22;38747;53.140;6.498;2023-02-13T11:23:52;7.50;99.90
52879;DHT22;38747;53.140;6.498;2023-02-13T11:26:35;7.50;99.90
52879;DHT22;38747;53.140;6.498;2023-02-13T11:29:15;7.50;99.90
52879;DHT22;38747;53.140;6.498;2023-02-13T11:31:42;7.50;99.90
52879;DHT22;38747;53.140;6.498;2023-02-13T11:34:25;7.60;99.90
52879;DHT22;38747;53.140;6.498;2023-02-13T11:36:53;7.60;99.90
52879;DHT22;38747;53.140;6.498;2023-02-13T11:39:25;7.60;99.90
52879;DHT22;38747;53.140;6.498;2023-02-13T11:41:51;7.60;99.90
52879;DHT22;38747;53.140;6.498;2023-02-13T11:44:24;7.60;99.90
52879;DHT22;38747;53.140;6.498;2023-02-13T11:46:53;7.70;99.90
52879;DHT22;38747;53.140;6.498;2023-02-13T11:49:30;7.70;99.90
52879;DHT22;38747;53.140;6.498;2023-02-13T11:52:02;7.70;99.90
52879;DHT22;38747;53.140;6.498;2023-02-13T11:54:42;7.80;99.90
52879;DHT22;38747;53.140;6.498;2023-02-13T11:57:29;7.90;99.90
52879;DHT22;38747;53.140;6.498;2023-02-13T11:59:56;7.90;99.90
52879;DHT22;38747;53.140;6.498;2023-02-13T12:02:47;7.90;99.90
52879;DHT22;38747;53.140;6.498;2023-02-13T12:05:33;7.90;99.90
52879;DHT22;38747;53.140;6.498;2023-02-13T12:08:00;8.00;99.90
52879;DHT22;38747;53.140;6.498;2023-02-13T12:10:28;8.00;99.90
52879;DHT22;38747;53.140;6.498;2023-02-13T12:13:13;8.00;99.90
52879;DHT22;38747;53.140;6.498;2023-02-13T12:15:39;8.10;99.90
52879;DHT22;38747;53.140;6.498;2023-02-13T12:18:31;8.10;99.90
52879;DHT22;38747;53.140;6.498;2023-02-13T12:26:33;8.10;99.90
52879;DHT22;38747;53.140;6.498;2023-02-13T12:57:14;8.40;99.90
52879;DHT22;38747;53.140;6.498;2023-02-13T13:05:43;8.40;99.90
52879;DHT22;38747;53.140;6.498;2023-02-13T13:08:57;8.50;99.90
52879;DHT22;38747;53.140;6.498;2023-02-13T13:14:10;8.60;99.90
52879;DHT22;38747;53.140;6.498;2023-02-13T13:16:43;8.60;99.90
52879;DHT22;38747;53.140;6.498;2023-02-13T13:26:53;8.70;99.90
52879;DHT22;38747;53.140;6.498;2023-02-13T13:29:34;8.70;99.90
52879;DHT22;38747;53.140;6.498;2023-02-13T13:32:06;8.80;99.90
52879;DHT22;38747;53.140;6.498;2023-02-13T13:34:34;8.80;99.90
52879;DHT22;38747;53.140;6.498;2023-02-13T13:37:25;8.90;99.90
52879;DHT22;38747;53.140;6.498;2023-02-13T13:40:30;8.90;99.90
52879;DHT22;38747;53.140;6.498;2023-02-13T13:45:51;8.80;99.90
52879;DHT22;38747;53.140;6.498;2023-02-13T13:51:35;8.80;99.90
52879;DHT22;38747;53.140;6.498;2023-02-13T14:07:55;8.80;99.90
52879;DHT22;38747;53.140;6.498;2023-02-13T14:13:00;8.80;99.90
52879;DHT22;38747;53.140;6.498;2023-02-13T14:18:00;8.80;99.90
52879;DHT22;38747;53.140;6.498;2023-02-13T14:23:15;8.80;99.90
52879;DHT22;38747;53.140;6.498;2023-02-13T14:25:41;8.80;99.90
52879;DHT22;38747;53.140;6.498;2023-02-13T14:28:21;8.70;99.90
52879;DHT22;38747;53.140;6.498;2023-02-13T14:30:48;8.70;99.90
52879;DHT22;38747;53.140;6.498;2023-02-13T14:33:29;8.70;99.90
52879;DHT22;38747;53.140;6.498;2023-02-13T14:39:04;8.70;99.90
52879;DHT22;38747;53.140;6.498;2023-02-13T14:41:40;8.80;99.90
52879;DHT22;38747;53.140;6.498;2023-02-13T14:44:18;8.80;99.90
52879;DHT22;38747;53.140;6.498;2023-02-13T14:46:46;8.80;99.90
52879;DHT22;38747;53.140;6.498;2023-02-13T14:49:54;8.80;99.90
52879;DHT22;38747;53.140;6.498;2023-02-13T14:52:17;8.80;99.90
52879;DHT22;38747;53.140;6.498;2023-02-13T14:54:53;8.80;99.90
52879;DHT22;38747;53.140;6.498;2023-02-13T15:06:25;8.70;99.90
52879;DHT22;38747;53.140;6.498;2023-02-13T15:08:52;8.70;99.90
52879;DHT22;38747;53.140;6.498;2023-02-13T15:11:36;8.70;99.90
52879;DHT22;38747;53.140;6.498;2023-02-13T15:14:20;8.70;99.90
52879;DHT22;38747;53.140;6.498;2023-02-13T15:17:06;8.70;99.90
52879;DHT22;38747;53.140;6.498;2023-02-13T15:19:35;8.70;99.90
52879;DHT22;38747;53.140;6.498;2023-02-13T15:22:04;8.70;99.90
52879;DHT22;38747;53.140;6.498;2023-02-13T15:24:37;8.60;99.90
52879;DHT22;38747;53.140;6.498;2023-02-13T15:27:18;8.60;99.90
52879;DHT22;38747;53.140;6.498;2023-02-13T15:30:03;8.60;99.90
52879;DHT22;38747;53.140;6.498;2023-02-13T15:32:35;8.60;99.90
52879;DHT22;38747;53.140;6.498;2023-02-13T15:37:49;8.60;99.90
52879;DHT22;38747;53.140;6.498;2023-02-13T15:40:25;8.60;99.90
52879;DHT22;38747;53.140;6.498;2023-02-13T15:42:51;8.60;99.90
52879;DHT22;38747;53.140;6.498;2023-02-13T15:45:19;8.50;99.90
52879;DHT22;38747;53.140;6.498;2023-02-13T15:47:45;8.50;99.90
52879;DHT22;38747;53.140;6.498;2023-02-13T15:50:26;8.50;99.90
52879;DHT22;38747;53.140;6.498;2023-02-13T15:52:53;8.50;99.90
52879;DHT22;38747;53.140;6.498;2023-02-13T15:55:28;8.50;99.90
52879;DHT22;38747;53.140;6.498;2023-02-13T15:57:57;8.50;99.90
52879;DHT22;38747;53.140;6.498;2023-02-13T16:00:32;8.40;99.90
52879;DHT22;38747;53.140;6.498;2023-02-13T16:03:01;8.50;99.90
52879;DHT22;38747;53.140;6.498;2023-02-13T16:05:29;8.40;99.90
52879;DHT22;38747;53.140;6.498;2023-02-13T16:07:58;8.40;99.90
52879;DHT22;38747;53.140;6.498;2023-02-13T16:10:33;8.40;99.90
52879;DHT22;38747;53.140;6.498;2023-02-13T16:13:04;8.40;99.90
52879;DHT22;38747;53.140;6.498;2023-02-13T16:15:32;8.30;99.90
52879;DHT22;38747;53.140;6.498;2023-02-13T16:17:58;8.30;99.90
52879;DHT22;38747;53.140;6.498;2023-02-13T16:20:27;8.30;99.90
52879;DHT22;38747;53.140;6.498;2023-02-13T16:23:05;8.30;99.90
52879;DHT22;38747;53.140;6.498;2023-02-13T16:25:39;8.20;99.90
52879;DHT22;38747;53.140;6.498;2023-02-13T16:28:18;8.20;99.90
52879;DHT22;38747;53.140;6.498;2023-02-13T16:31:11;8.10;99.90
52879;DHT22;38747;53.140;6.498;2023-02-13T16:33:42;8.00;99.90
52879;DHT22;38747;53.140;6.498;2023-02-13T16:38:39;7.80;99.90
52879;DHT22;38747;53.140;6.498;2023-02-13T16:44:23;7.50;99.90
52879;DHT22;38747;53.140;6.498;2023-02-13T16:47:04;7.40;99.90
52879;DHT22;38747;53.140;6.498;2023-02-13T16:49:35;7.30;99.90
52879;DHT22;38747;53.140;6.498;2023-02-13T16:52:16;7.20;99.90
52879;DHT22;38747;53.140;6.498;2023-02-13T17:04:37;6.70;99.90
52879;DHT22;38747;53.140;6.498;2023-02-13T17:07:04;6.60;99.90
52879;DHT22;38747;53.140;6.498;2023-02-13T17:09:35;6.60;99.90
52879;DHT22;38747;53.140;6.498;2023-02-13T17:12:01;6.50;99.90
52879;DHT22;38747;53.140;6.498;2023-02-13T17:14:26;6.40;99.90
52879;DHT22;38747;53.140;6.498;2023-02-13T17:16:52;6.30;99.90
52879;DHT22;38747;53.140;6.498;2023-02-13T17:19:18;6.20;99.90
52879;DHT22;38747;53.140;6.498;2023-02-13T17:21:44;6.10;99.90
52879;DHT22;38747;53.140;6.498;2023-02-13T17:24:15;6.10;99.90
52879;DHT22;38747;53.140;6.498;2023-02-13T17:26:42;6.00;99.90
52879;DHT22;38747;53.140;6.498;2023-02-13T17:29:08;5.90;99.90
52879;DHT22;38747;53.140;6.498;2023-02-13T17:31:33;5.80;99.90
52879;DHT22;38747;53.140;6.498;2023-02-13T17:33:59;5.80;99.90
52879;DHT22;38747;53.140;6.498;2023-02-13T17:36:25;5.70;99.90
52879;DHT22;38747;53.140;6.498;2023-02-13T17:38:50;5.70;99.90
52879;DHT22;38747;53.140;6.498;2023-02-13T17:41:16;5.60;99.90
52879;DHT22;38747;53.140;6.498;2023-02-13T17:43:41;5.60;99.90
52879;DHT22;38747;53.140;6.498;2023-02-13T17:46:07;5.50;99.90
52879;DHT22;38747;53.140;6.498;2023-02-13T17:48:33;5.40;99.90
52879;DHT22;38747;53.140;6.498;2023-02-13T17:50:58;5.40;99.90
52879;DHT22;38747;53.140;6.498;2023-02-13T17:53:28;5.40;99.90
52879;DHT22;38747;53.140;6.498;2023-02-13T17:55:54;5.30;99.90
52879;DHT22;38747;53.140;6.498;2023-02-13T17:58:20;5.30;99.90
52879;DHT22;38747;53.140;6.498;2023-02-13T18:00:46;5.20;99.90
52879;DHT22;38747;53.140;6.498;2023-02-13T18:03:12;5.20;99.90
52879;DHT22;38747;53.140;6.498;2023-02-13T18:05:38;5.20;99.90
52879;DHT22;38747;53.140;6.498;2023-02-13T18:08:04;5.10;99.90
52879;DHT22;38747;53.140;6.498;2023-02-13T18:10:32;5.10;99.90
52879;DHT22;38747;53.140;6.498;2023-02-13T18:12:58;5.00;99.90
52879;DHT22;38747;53.140;6.498;2023-02-13T18:15:39;5.00;99.90
52879;DHT22;38747;53.140;6.498;2023-02-13T18:18:05;5.00;99.90
52879;DHT22;38747;53.140;6.498;2023-02-13T18:20:31;5.00;99.90
52879;DHT22;38747;53.140;6.498;2023-02-13T18:22:57;5.00;99.90
52879;DHT22;38747;53.140;6.498;2023-02-13T18:25:23;4.90;99.90
52879;DHT22;38747;53.140;6.498;2023-02-13T18:27:49;4.90;99.90
52879;DHT22;38747;53.140;6.498;2023-02-13T18:30:17;4.90;99.90
52879;DHT22;38747;53.140;6.498;2023-02-13T18:32:44;4.80;99.90
52879;DHT22;38747;53.140;6.498;2023-02-13T18:35:09;4.80;99.90
52879;DHT22;38747;53.140;6.498;2023-02-13T18:37:36;4.80;99.90
52879;DHT22;38747;53.140;6.498;2023-02-13T18:40:07;4.70;99.90
52879;DHT22;38747;53.140;6.498;2023-02-13T18:42:33;4.60;99.90
52879;DHT22;38747;53.140;6.498;2023-02-13T18:45:00;4.60;99.90
52879;DHT22;38747;53.140;6.498;2023-02-13T18:47:26;4.60;99.90
52879;DHT22;38747;53.140;6.498;2023-02-13T18:49:51;4.60;99.90
52879;DHT22;38747;53.140;6.498;2023-02-13T18:52:17;4.50;99.90
52879;DHT22;38747;53.140;6.498;2023-02-13T18:54:43;4.50;99.90
52879;DHT22;38747;53.140;6.498;2023-02-13T18:57:08;4.50;99.90